Time;durP1;ratioP1;P1;durP2;ratioP2;P2;SDS_P1;SDS_P2;PMS_P1;PMS_P2;Temp;Humidity;BMP_temperature;BMP_pressure;BME280_temperature;BME280_humidity;BME280_pressure;Samples;Min_cycle;Max_cycle;Signal;HPM_P1;HPM_P2
2023/02/05 00:02:10;;;;;;;;;;;;;;;15.68;43.99;100524.63;4960383;28;1914;-50
2023/02/05 00:04:35;;;;;;;;;;;;;;;17.03;41.05;100526.81;4969316;28;890;-47
2023/02/05 00:07:02;;;;;;;;;;;;;;;15.92;43.52;100508.44;4960521;28;1034;-46
2023/02/05 00:09:27;;;;;;;;;;;;;;;17.38;40.50;100516.72;4960588;28;1017;-51
2023/02/05 00:11:53;;;;;;;;;;;;;;;16.72;41.40;100510.47;4959979;28;1093;-51
2023/02/05 00:14:18;;;;;;;;;;;;;;;16.04;43.04;100522.72;4960382;28;1077;-53
2023/02/05 00:16:44;;;;;;;;;;;;;;;16.41;42.69;100502.34;4963085;28;895;-55
2023/02/05 00:19:09;;;;;;;;;;;;;;;16.60;41.64;100515.44;4960135;28;1050;-52
2023/02/05 00:21:35;;;;;;;;;;;;;;;16.60;42.03;100513.50;4960207;28;1887;-45
2023/02/05 00:24:00;;;;;;;;;;;;;;;18.16;38.44;100536.22;4960462;28;1130;-52
2023/02/05 00:26:26;;;;;;;;;;;;;;;16.56;41.86;100536.31;4959973;28;1140;-50
2023/02/05 00:28:53;;;;;;;;;;;;;;;15.99;42.96;100509.03;4969426;28;1015;-51
2023/02/05 00:31:18;;;;;;;;;;;;;;;17.26;40.33;100517.09;4960400;28;1124;-54
2023/02/05 00:33:44;;;;;;;;;;;;;;;16.28;42.17;100527.59;4942913;29;1035;-42
2023/02/05 00:36:10;;;;;;;;;;;;;;;16.90;41.27;100535.66;4960104;28;1243;-43
2023/02/05 00:38:36;;;;;;;;;;;;;;;17.15;40.23;100525.66;4942557;29;1082;-46
2023/02/05 00:41:02;;;;;;;;;;;;;;;16.36;42.36;100532.53;4962950;28;1899;-48
2023/02/05 00:43:27;;;;;;;;;;;;;;;18.33;38.20;100522.00;4959948;28;1173;-49
2023/02/05 00:45:53;;;;;;;;;;;;;;;16.94;40.79;100539.50;4959948;28;1062;-55
2023/02/05 00:48:18;;;;;;;;;;;;;;;16.32;41.97;100545.16;4959742;28;1085;-47
2023/02/05 00:50:43;;;;;;;;;;;;;;;17.41;39.59;100524.41;4959412;28;1205;-48
2023/02/05 00:53:09;;;;;;;;;;;;;;;16.40;41.70;100547.34;4959129;28;1197;-47
2023/02/05 00:55:34;;;;;;;;;;;;;;;16.14;42.49;100548.50;4959234;29;1379;-51
2023/02/05 00:58:00;;;;;;;;;;;;;;;17.44;39.49;100542.25;4959621;28;1343;-44
2023/02/05 01:00:26;;;;;;;;;;;;;;;16.28;42.00;100543.25;4959847;28;1964;-40
2023/02/05 01:02:52;;;;;;;;;;;;;;;15.90;42.81;100538.91;4959608;28;1026;-48
2023/02/05 01:05:18;;;;;;;;;;;;;;;15.79;42.77;100553.69;4968402;28;935;-48
2023/02/05 01:07:44;;;;;;;;;;;;;;;16.84;40.97;100556.00;4959455;28;1161;-52
2023/02/05 01:10:09;;;;;;;;;;;;;;;16.25;42.04;100553.69;4942633;29;1100;-48
2023/02/05 01:12:35;;;;;;;;;;;;;;;16.87;40.88;100552.69;4942018;29;1376;-49
2023/02/05 01:15:01;;;;;;;;;;;;;;;17.45;39.15;100547.47;4958932;28;1260;-47
2023/02/05 01:17:26;;;;;;;;;;;;;;;16.28;41.83;100549.56;4959320;28;1258;-44
2023/02/05 01:19:52;;;;;;;;;;;;;;;16.46;41.75;100555.56;4958247;29;1252;-47
2023/02/05 01:22:17;;;;;;;;;;;;;;;16.46;41.26;100550.91;4958389;29;1954;-51
2023/02/05 01:24:42;;;;;;;;;;;;;;;15.85;42.74;100558.09;4958412;29;1312;-53
2023/02/05 01:27:09;;;;;;;;;;;;;;;17.27;39.35;100554.44;4958646;28;1264;-52
2023/02/05 01:29:34;;;;;;;;;;;;;;;16.16;42.06;100546.28;4960350;28;1248;-46
2023/02/05 01:31:59;;;;;;;;;;;;;;;17.90;38.21;100554.84;4958564;29;1316;-49
2023/02/05 01:34:25;;;;;;;;;;;;;;;17.22;39.34;100553.66;4958328;29;1561;-49
2023/02/05 01:36:50;;;;;;;;;;;;;;;16.31;41.60;100570.94;4957913;29;1304;-50
2023/02/05 01:39:16;;;;;;;;;;;;;;;16.01;42.19;100547.13;4958564;28;1442;-46
2023/02/05 01:41:43;;;;;;;;;;;;;;;15.87;42.37;100577.84;4969642;28;1971;-44
2023/02/05 01:44:11;;;;;;;;;;;;;;;16.74;40.39;100579.63;4940875;29;1308;-49
2023/02/05 01:46:41;;;;;;;;;;;;;;;16.14;41.73;100578.66;4973417;28;1120;-48
2023/02/05 01:49:07;;;;;;;;;;;;;;;18.05;37.89;100571.25;4973249;28;1601;-51
2023/02/05 01:51:32;;;;;;;;;;;;;;;16.69;40.44;100590.66;4960117;28;1070;-50
2023/02/05 01:53:57;;;;;;;;;;;;;;;16.12;41.72;100589.06;4962994;28;1441;-49
2023/02/05 01:56:37;;;;;;;;;;;;;;;17.23;39.68;100582.78;4964876;28;1086;-49
2023/02/05 01:59:05;;;;;;;;;;;;;;;16.51;40.62;100574.75;4976794;28;1096;-51
2023/02/05 02:01:31;;;;;;;;;;;;;;;16.02;41.97;100585.25;4958026;29;1918;-49
2023/02/05 02:03:56;;;;;;;;;;;;;;;16.92;39.76;100593.91;4941293;29;1276;-51
2023/02/05 02:06:22;;;;;;;;;;;;;;;16.07;41.68;100593.50;4957876;28;1208;-50
2023/02/05 02:08:47;;;;;;;;;;;;;;;15.95;42.10;100595.69;4973159;28;1273;-53
2023/02/05 02:11:15;;;;;;;;;;;;;;;16.39;41.13;100594.28;4958486;28;1046;-55
2023/02/05 02:13:41;;;;;;;;;;;;;;;17.22;39.23;100581.13;4941360;29;1105;-53
2023/02/05 02:16:06;;;;;;;;;;;;;;;18.41;36.77;100595.69;4946031;28;1193;-53
2023/02/05 02:18:32;;;;;;;;;;;;;;;16.71;39.99;100602.16;4974854;28;1072;-50
2023/02/05 02:21:06;;;;;;;;;;;;;;;16.20;41.06;100597.59;4940635;29;1915;-51
2023/02/05 02:23:47;;;;;;;;;;;;;;;16.90;39.63;100610.66;4972946;28;1212;-48
2023/02/05 02:26:41;;;;;;;;;;;;;;;16.13;41.48;100583.34;4958101;28;1077;-49
2023/02/05 02:29:06;;;;;;;;;;;;;;;17.94;37.65;100611.78;4957359;28;1698;-53
2023/02/05 02:31:33;;;;;;;;;;;;;;;16.55;40.24;100620.59;4957858;28;1126;-49
2023/02/05 02:34:03;;;;;;;;;;;;;;;15.99;41.52;100615.97;4958150;28;1121;-46
2023/02/05 02:36:36;;;;;;;;;;;;;;;16.90;39.50;100629.06;4941330;29;1134;-42
2023/02/05 02:39:02;;;;;;;;;;;;;;;16.10;41.05;100624.19;4957967;28;1061;-47
2023/02/05 02:41:31;;;;;;;;;;;;;;;15.86;41.59;100630.22;4965089;28;1903;-54
2023/02/05 02:43:58;;;;;;;;;;;;;;;16.39;40.34;100639.00;4940763;28;1074;-52
2023/02/05 02:46:30;;;;;;;;;;;;;;;17.49;38.32;100643.09;4958020;28;1221;-48
2023/02/05 02:48:57;;;;;;;;;;;;;;;18.47;35.99;100646.03;4940881;28;1058;-51
2023/02/05 02:51:22;;;;;;;;;;;;;;;16.82;39.32;100654.34;4924892;29;1125;-49
2023/02/05 02:53:51;;;;;;;;;;;;;;;16.26;40.78;100639.56;4959527;28;920;-52
2023/02/05 02:56:16;;;;;;;;;;;;;;;16.03;41.01;100655.47;4940800;29;1606;-49
2023/02/05 02:58:49;;;;;;;;;;;;;;;15.65;41.73;100662.22;4931292;29;1438;-50
2023/02/05 03:01:16;;;;;;;;;;;;;;;16.80;39.70;100656.53;4944823;28;1906;-49
2023/02/05 03:03:43;;;;;;;;;;;;;;;16.10;40.77;100654.38;4940710;28;1215;-51
2023/02/05 03:06:09;;;;;;;;;;;;;;;16.68;39.65;100665.88;4942476;29;1082;-40
2023/02/05 03:08:48;;;;;;;;;;;;;;;17.23;38.07;100662.47;4974280;28;1124;-48
2023/02/05 03:11:13;;;;;;;;;;;;;;;16.04;40.69;100670.81;4976672;28;1081;-46
2023/02/05 03:13:43;;;;;;;;;;;;;;;16.96;38.91;100671.06;4944378;28;1314;-55
2023/02/05 03:16:08;;;;;;;;;;;;;;;16.24;40.06;100658.22;4930065;28;1136;-46
2023/02/05 03:18:34;;;;;;;;;;;;;;;16.91;39.01;100682.88;4965986;28;1038;-42
2023/02/05 03:21:01;;;;;;;;;;;;;;;17.34;37.93;100658.56;4975585;28;1910;-46
2023/02/05 03:23:26;;;;;;;;;;;;;;;16.36;39.77;100660.69;4943862;29;1360;-46
2023/02/05 03:25:52;;;;;;;;;;;;;;;16.50;39.93;100674.69;4961252;28;1053;-48
2023/02/05 03:28:22;;;;;;;;;;;;;;;16.72;39.10;100675.22;4979081;28;1346;-40
2023/02/05 03:30:59;;;;;;;;;;;;;;;16.42;39.92;100682.38;4946920;29;1323;-46
2023/02/05 03:33:37;;;;;;;;;;;;;;;18.19;35.91;100669.63;4960197;28;1339;-47
2023/02/05 03:36:07;;;;;;;;;;;;;;;16.50;39.47;100705.69;4976092;28;1402;-40
2023/02/05 03:38:48;;;;;;;;;;;;;;;17.88;36.93;100689.06;4928168;29;1240;-46
2023/02/05 03:41:17;;;;;;;;;;;;;;;17.13;38.13;100692.75;4934676;29;1981;-44
2023/02/05 03:43:42;;;;;;;;;;;;;;;16.35;39.77;100702.94;4961017;28;1192;-40
2023/02/05 03:46:11;;;;;;;;;;;;;;;16.57;39.29;100695.25;4961414;28;1138;-42
2023/02/05 03:48:52;;;;;;;;;;;;;;;16.54;39.24;100708.72;4943686;28;1158;-43
2023/02/05 03:51:18;;;;;;;;;;;;;;;16.00;40.13;100719.06;4960090;28;2276;-45
2023/02/05 03:53:47;;;;;;;;;;;;;;;15.74;40.84;100716.25;4943102;29;1928;-38
2023/02/05 03:56:14;;;;;;;;;;;;;;;16.86;38.66;100713.91;4972325;28;2347;-41
2023/02/05 03:58:42;;;;;;;;;;;;;;;16.03;40.10;100723.19;4943243;29;2112;-43
2023/02/05 04:01:08;;;;;;;;;;;;;;;17.07;38.10;100725.72;4967698;28;2224;-41
2023/02/05 04:03:34;;;;;;;;;;;;;;;17.15;37.36;100710.56;4926553;28;2338;-44
2023/02/05 04:06:00;;;;;;;;;;;;;;;16.19;39.51;100729.56;4945534;29;1886;-45
2023/02/05 04:08:25;;;;;;;;;;;;;;;17.39;37.25;100727.28;4959876;28;2048;-43
2023/02/05 04:10:52;;;;;;;;;;;;;;;16.51;38.86;100725.72;4944104;28;2128;-41
2023/02/05 04:13:17;;;;;;;;;;;;;;;16.04;39.89;100752.28;4965843;28;1911;-45
2023/02/05 04:15:43;;;;;;;;;;;;;;;16.98;37.80;100732.84;4942906;29;2056;-42
2023/02/05 04:18:10;;;;;;;;;;;;;;;16.07;39.85;100758.06;4958317;28;2018;-44
2023/02/05 04:20:36;;;;;;;;;;;;;;;16.95;38.14;100766.38;4959811;28;1965;-47
2023/02/05 04:23:03;;;;;;;;;;;;;;;16.68;38.55;100767.47;4942232;28;1794;-44
2023/02/05 04:25:31;;;;;;;;;;;;;;;16.14;39.41;100767.94;4942965;29;1143;-44
2023/02/05 04:27:59;;;;;;;;;;;;;;;16.85;38.41;100766.38;4943904;28;2183;-44
2023/02/05 04:30:24;;;;;;;;;;;;;;;16.30;38.92;100774.28;4965890;28;2331;-45
2023/02/05 04:32:50;;;;;;;;;;;;;;;16.36;39.06;100776.75;4942072;28;1925;-47
2023/02/05 04:35:16;;;;;;;;;;;;;;;17.26;36.84;100777.31;4942482;29;2242;-43
2023/02/05 04:37:43;;;;;;;;;;;;;;;16.21;39.24;100785.78;4942314;28;2108;-47
2023/02/05 04:40:09;;;;;;;;;;;;;;;17.37;36.89;100798.19;4946103;29;2357;-48
2023/02/05 04:42:34;;;;;;;;;;;;;;;16.81;37.95;100807.28;4960241;28;2100;-48
2023/02/05 04:44:59;;;;;;;;;;;;;;;16.10;39.28;100816.22;4959277;28;1082;-43
2023/02/05 04:47:25;;;;;;;;;;;;;;;17.30;36.89;100814.13;4959470;28;1224;-41
2023/02/05 04:49:50;;;;;;;;;;;;;;;16.30;38.75;100815.44;4958881;28;1577;-47
2023/02/05 04:52:16;;;;;;;;;;;;;;;15.88;39.74;100825.47;4959117;28;987;-44
2023/02/05 04:54:41;;;;;;;;;;;;;;;17.25;37.06;100838.88;4968536;28;867;-46
2023/02/05 04:57:06;;;;;;;;;;;;;;;16.01;39.43;100841.41;4959235;28;1006;-48
2023/02/05 04:59:32;;;;;;;;;;;;;;;17.35;36.93;100836.13;4959124;28;1165;-44
2023/02/05 05:01:58;;;;;;;;;;;;;;;16.92;37.43;100817.19;4958998;28;1968;-44
2023/02/05 05:04:23;;;;;;;;;;;;;;;16.19;39.01;100826.41;4959339;28;1062;-48
2023/02/05 05:06:49;;;;;;;;;;;;;;;15.88;39.42;100819.97;4961964;28;868;-50
2023/02/05 05:09:14;;;;;;;;;;;;;;;17.08;37.39;100804.28;4957747;28;998;-48
2023/02/05 05:11:40;;;;;;;;;;;;;;;16.23;38.73;100843.97;4958435;28;2454;-47
2023/02/05 05:14:05;;;;;;;;;;;;;;;17.60;36.19;100831.69;4958945;28;1062;-48
2023/02/05 05:16:30;;;;;;;;;;;;;;;17.63;35.82;100836.63;4959086;28;1098;-43
2023/02/05 05:18:56;;;;;;;;;;;;;;;16.40;38.20;100860.19;4968474;28;1066;-48
2023/02/05 05:21:21;;;;;;;;;;;;;;;15.97;38.99;100834.81;4958905;28;1910;-49
2023/02/05 05:23:47;;;;;;;;;;;;;;;15.98;39.33;100852.13;4959227;28;1148;-46
2023/02/05 05:26:12;;;;;;;;;;;;;;;16.40;38.03;100838.25;4958456;28;1453;-49
2023/02/05 05:28:38;;;;;;;;;;;;;;;15.77;39.52;100842.91;4965031;28;1033;-47
2023/02/05 05:31:10;;;;;;;;;;;;;;;17.21;36.36;100846.84;4959787;28;927;-49
2023/02/05 05:33:35;;;;;;;;;;;;;;;16.03;38.86;100861.19;4946264;28;1118;-47
2023/02/05 05:36:01;;;;;;;;;;;;;;;16.81;37.39;100866.88;4958243;28;1069;-52
2023/02/05 05:38:26;;;;;;;;;;;;;;;16.70;37.33;100853.13;4958484;28;1015;-46
2023/02/05 05:43:47;;;;;;;;;;;;;;;15.72;39.19;100851.94;4957743;28;2533;-52
2023/02/05 05:46:23;;;;;;;;;;;;;;;16.52;37.30;100875.59;4958368;28;1186;-49
2023/02/05 05:48:49;;;;;;;;;;;;;;;15.82;38.93;100879.47;4958426;28;1259;-46
2023/02/05 05:51:14;;;;;;;;;;;;;;;17.24;36.39;100872.97;4958352;28;1018;-49
2023/02/05 05:53:40;;;;;;;;;;;;;;;16.18;38.14;100889.75;4961981;28;1093;-52
2023/02/05 05:56:05;;;;;;;;;;;;;;;15.67;39.19;100882.06;4959235;28;997;-48
2023/02/05 05:58:31;;;;;;;;;;;;;;;16.57;37.36;100892.91;4957770;28;982;-47
2023/02/05 06:00:56;;;;;;;;;;;;;;;16.01;38.45;100895.44;4957750;28;1972;-49
2023/02/05 06:03:22;;;;;;;;;;;;;;;17.85;34.78;100893.22;4957909;28;1027;-50
2023/02/05 06:05:48;;;;;;;;;;;;;;;16.64;36.94;100914.63;4962589;28;1026;-49
2023/02/05 06:08:15;;;;;;;;;;;;;;;16.05;38.40;100933.03;4965938;28;1068;-43
2023/02/05 06:10:40;;;;;;;;;;;;;;;15.89;38.77;100925.81;4958108;28;1169;-50
2023/02/05 06:13:06;;;;;;;;;;;;;;;16.74;36.92;100958.56;4958336;28;2594;-49
2023/02/05 06:15:31;;;;;;;;;;;;;;;15.96;38.50;100948.34;4958670;28;1099;-46
2023/02/05 06:17:56;;;;;;;;;;;;;;;17.64;35.02;100972.19;4962502;28;1030;-53
2023/02/05 06:20:22;;;;;;;;;;;;;;;17.16;35.95;100966.94;4959218;28;1306;-49
2023/02/05 06:22:47;;;;;;;;;;;;;;;16.48;37.23;100987.88;4957747;28;1910;-52
2023/02/05 06:25:14;;;;;;;;;;;;;;;16.16;37.92;100991.53;4957351;28;1149;-49
2023/02/05 06:27:40;;;;;;;;;;;;;;;15.85;38.56;101001.47;4958145;28;1058;-51
2023/02/05 06:30:05;;;;;;;;;;;;;;;15.66;38.80;101020.22;4957993;28;1034;-47
2023/02/05 06:32:31;;;;;;;;;;;;;;;15.46;39.23;101021.69;4957496;28;1006;-56
2023/02/05 06:34:56;;;;;;;;;;;;;;;15.26;39.42;101016.03;4957361;28;1164;-46
2023/02/05 06:37:24;;;;;;;;;;;;;;;16.10;37.99;101025.50;4957736;28;1065;-52
2023/02/05 06:39:50;;;;;;;;;;;;;;;17.29;35.59;101035.09;4957224;28;1046;-50
2023/02/05 06:42:15;;;;;;;;;;;;;;;16.25;37.53;101027.53;4957905;28;1919;-52
2023/02/05 06:44:41;;;;;;;;;;;;;;;15.75;38.63;101043.31;4957361;28;1061;-48
2023/02/05 06:47:06;;;;;;;;;;;;;;;15.51;39.02;101048.31;4957627;28;1172;-48
2023/02/05 06:49:31;;;;;;;;;;;;;;;15.46;39.31;101048.25;4957761;28;1203;-46
2023/02/05 06:51:57;;;;;;;;;;;;;;;17.00;36.28;101054.84;4957572;28;1089;-49
2023/02/05 06:54:23;;;;;;;;;;;;;;;17.53;34.89;101048.34;4958596;28;1078;-51
2023/02/05 06:56:48;;;;;;;;;;;;;;;16.32;37.22;101063.78;4957366;28;1093;-53
2023/02/05 06:59:13;;;;;;;;;;;;;;;15.83;38.15;101061.25;4957311;28;1049;-51
2023/02/05 07:01:39;;;;;;;;;;;;;;;15.63;38.88;101059.94;4957092;28;1907;-45
2023/02/05 07:04:04;;;;;;;;;;;;;;;15.72;38.56;101057.56;4957846;28;1030;-52
2023/02/05 07:06:30;;;;;;;;;;;;;;;17.20;35.74;101076.03;4963406;28;1090;-52
2023/02/05 07:08:55;;;;;;;;;;;;;;;16.96;36.11;101070.19;4960019;28;1085;-53
2023/02/05 07:11:21;;;;;;;;;;;;;;;16.07;37.64;101078.16;4957532;28;1070;-52
2023/02/05 07:13:46;;;;;;;;;;;;;;;15.72;38.39;101052.91;4958273;28;2707;-52
2023/02/05 07:16:12;;;;;;;;;;;;;;;15.52;38.76;101072.72;4956787;28;1049;-47
2023/02/05 07:18:37;;;;;;;;;;;;;;;17.01;36.07;101083.13;4960472;28;1098;-50
2023/02/05 07:21:03;;;;;;;;;;;;;;;17.06;35.80;101088.63;4956979;28;1915;-53
2023/02/05 07:23:29;;;;;;;;;;;;;;;16.15;37.60;101083.16;4957533;28;1058;-51
2023/02/05 07:25:54;;;;;;;;;;;;;;;15.79;38.42;101080.13;4956941;28;1132;-53
2023/02/05 07:28:19;;;;;;;;;;;;;;;15.48;38.92;101092.69;4957262;28;1026;-50
2023/02/05 07:30:46;;;;;;;;;;;;;;;16.51;37.11;101099.03;4963293;28;1058;-51
2023/02/05 07:33:12;;;;;;;;;;;;;;;17.57;35.13;101086.03;4960296;28;1205;-48
2023/02/05 07:35:38;;;;;;;;;;;;;;;16.40;37.04;101092.69;4957195;28;1140;-54
2023/02/05 07:38:03;;;;;;;;;;;;;;;15.86;38.14;101090.88;4957347;28;1026;-50
2023/02/05 07:40:29;;;;;;;;;;;;;;;15.60;38.76;101098.84;4957227;28;1972;-49
2023/02/05 07:42:54;;;;;;;;;;;;;;;15.39;39.01;101082.19;4960942;28;2485;-49
2023/02/05 07:45:20;;;;;;;;;;;;;;;16.68;36.50;101088.72;4956424;28;1160;-48
2023/02/05 07:47:48;;;;;;;;;;;;;;;17.60;34.83;101099.22;4957025;28;1030;-48
2023/02/05 07:50:14;;;;;;;;;;;;;;;16.79;36.20;101097.00;4956984;28;1018;-51
2023/02/05 07:52:40;;;;;;;;;;;;;;;16.08;37.61;101099.84;4956853;28;1117;-53
2023/02/05 07:55:05;;;;;;;;;;;;;;;15.69;38.48;101100.03;4967467;28;1097;-50
2023/02/05 07:57:30;;;;;;;;;;;;;;;15.44;38.93;101106.06;4963176;28;905;-48
2023/02/05 07:59:56;;;;;;;;;;;;;;;16.19;37.70;101110.91;4960613;28;1178;-51
2023/02/05 08:02:21;;;;;;;;;;;;;;;17.41;35.10;101115.41;4959801;28;1899;-49
2023/02/05 08:04:47;;;;;;;;;;;;;;;16.99;35.86;101124.59;4960305;28;1224;-52
2023/02/05 08:07:12;;;;;;;;;;;;;;;16.17;37.38;101121.31;4967170;28;1097;-48
2023/02/05 08:09:38;;;;;;;;;;;;;;;15.72;38.51;101124.19;4960080;28;1046;-56
2023/02/05 08:12:03;;;;;;;;;;;;;;;15.45;39.19;101128.84;4959870;28;2282;-53
2023/02/05 08:14:30;;;;;;;;;;;;;;;16.51;37.13;101121.84;4960229;28;1109;-56
2023/02/05 08:16:57;;;;;;;;;;;;;;;17.57;35.15;101131.94;4959628;28;1094;-51
2023/02/05 08:19:22;;;;;;;;;;;;;;;16.58;36.73;101135.34;4968363;28;1112;-50
2023/02/05 08:21:47;;;;;;;;;;;;;;;15.97;37.99;101149.41;4962511;28;1911;-52
2023/02/05 08:24:13;;;;;;;;;;;;;;;15.71;38.73;101149.94;4959809;28;1113;-47
2023/02/05 08:26:39;;;;;;;;;;;;;;;15.40;39.24;101151.50;4959962;28;1089;-48
2023/02/05 08:29:04;;;;;;;;;;;;;;;16.50;37.19;101160.53;4959875;28;1102;-53
2023/02/05 08:31:30;;;;;;;;;;;;;;;17.53;35.22;101172.91;4965978;28;1061;-57
2023/02/05 08:33:56;;;;;;;;;;;;;;;16.46;37.29;101182.19;4959859;28;1033;-52
2023/02/05 08:36:22;;;;;;;;;;;;;;;15.96;38.08;101188.88;4959398;28;1042;-55
2023/02/05 08:38:48;;;;;;;;;;;;;;;15.65;38.88;101205.78;4959889;28;943;-54
2023/02/05 08:41:13;;;;;;;;;;;;;;;15.37;39.23;101204.91;4959108;28;1973;-50
2023/02/05 08:43:43;;;;;;;;;;;;;;;16.74;36.62;101200.22;4966179;28;2551;-51
2023/02/05 08:46:09;;;;;;;;;;;;;;;17.26;35.46;101219.78;4959723;28;1046;-52
2023/02/05 08:48:34;;;;;;;;;;;;;;;16.20;37.66;101227.78;4959976;28;1205;-54
2023/02/05 08:51:00;;;;;;;;;;;;;;;15.75;38.31;101229.75;4959025;28;1088;-50
2023/02/05 08:53:26;;;;;;;;;;;;;;;15.69;38.64;101245.31;4959575;28;1125;-54
2023/02/05 08:55:58;;;;;;;;;;;;;;;17.22;35.87;101247.00;4966016;28;1193;-50
2023/02/05 08:58:23;;;;;;;;;;;;;;;17.03;35.84;101260.34;4958966;28;1026;-54
2023/02/05 09:00:49;;;;;;;;;;;;;;;16.15;37.52;101266.16;4959097;28;1976;-54
2023/02/05 09:03:14;;;;;;;;;;;;;;;15.72;38.92;101277.75;4959029;28;1034;-52
2023/02/05 09:05:40;;;;;;;;;;;;;;;15.73;38.85;101270.34;4971885;28;1134;-56
2023/02/05 09:08:05;;;;;;;;;;;;;;;17.27;35.74;101281.91;4960372;28;954;-50
2023/02/05 09:10:30;;;;;;;;;;;;;;;17.01;36.42;101269.94;4958963;28;1212;-49
2023/02/05 09:12:56;;;;;;;;;;;;;;;16.13;38.07;101299.34;4959288;28;2543;-54
2023/02/05 09:15:21;;;;;;;;;;;;;;;15.79;38.71;101277.56;4958657;28;1014;-53
2023/02/05 09:17:47;;;;;;;;;;;;;;;15.52;39.20;101277.47;4959036;28;1065;-50
2023/02/05 09:20:12;;;;;;;;;;;;;;;15.36;39.71;101301.94;4966390;28;1042;-49
2023/02/05 09:22:38;;;;;;;;;;;;;;;16.92;36.74;101281.41;4958879;28;1918;-56
2023/02/05 09:25:04;;;;;;;;;;;;;;;16.81;36.55;101265.09;4959011;28;1168;-50
2023/02/05 09:27:29;;;;;;;;;;;;;;;15.99;38.36;101287.09;4958072;28;1422;-50
2023/02/05 09:29:55;;;;;;;;;;;;;;;15.64;38.92;101286.41;4958170;28;1173;-51
2023/02/05 09:32:20;;;;;;;;;;;;;;;16.19;38.21;101286.50;4960805;28;1002;-54
2023/02/05 09:34:48;;;;;;;;;;;;;;;17.44;35.51;101290.81;4958495;28;1120;-52
2023/02/05 09:37:14;;;;;;;;;;;;;;;17.01;36.46;101276.28;4958519;28;1101;-49
2023/02/05 09:39:39;;;;;;;;;;;;;;;16.16;38.08;101287.00;4958731;28;1173;-54
2023/02/05 09:42:13;;;;;;;;;;;;;;;15.77;38.71;101284.34;4961808;28;1981;-53
2023/02/05 09:45:01;;;;;;;;;;;;;;;15.51;39.34;101295.00;4951980;29;1093;-53
2023/02/05 09:47:36;;;;;;;;;;;;;;;17.07;36.44;101302.69;4941195;28;1117;-49
2023/02/05 09:50:08;;;;;;;;;;;;;;;16.99;36.21;101307.84;4941313;29;1078;-56
2023/02/05 09:52:37;;;;;;;;;;;;;;;16.11;38.22;101322.63;4941322;28;1165;-55
2023/02/05 09:55:05;;;;;;;;;;;;;;;15.74;38.82;101313.94;4958927;28;1074;-53
2023/02/05 09:57:34;;;;;;;;;;;;;;;15.48;39.28;101306.47;4976383;28;1172;-47
2023/02/05 10:00:00;;;;;;;;;;;;;;;15.82;38.80;101311.88;4958326;28;1196;-51
2023/02/05 10:02:30;;;;;;;;;;;;;;;17.22;35.99;101304.72;4940991;29;1995;-54
2023/02/05 10:04:55;;;;;;;;;;;;;;;17.06;36.15;101309.25;4941021;29;1240;-54
2023/02/05 10:07:30;;;;;;;;;;;;;;;16.17;38.21;101310.63;4959649;28;990;-49
2023/02/05 10:10:02;;;;;;;;;;;;;;;15.77;38.75;101309.03;4980100;28;1143;-51
2023/02/05 10:12:33;;;;;;;;;;;;;;;16.25;38.28;101321.97;4957896;28;2314;-48
2023/02/05 10:15:19;;;;;;;;;;;;;;;17.59;35.36;101309.31;4957526;28;1022;-48
2023/02/05 10:17:52;;;;;;;;;;;;;;;16.55;37.46;101314.28;4957024;28;1661;-52
2023/02/05 10:20:20;;;;;;;;;;;;;;;16.01;38.29;101324.16;4945158;29;1161;-55
2023/02/05 10:22:46;;;;;;;;;;;;;;;15.66;39.29;101314.38;4957821;28;1907;-52
2023/02/05 10:25:30;;;;;;;;;;;;;;;15.42;39.84;101337.59;4958052;28;1101;-49
2023/02/05 10:28:01;;;;;;;;;;;;;;;17.00;36.67;101320.47;4957791;28;1102;-55
2023/02/05 10:30:29;;;;;;;;;;;;;;;16.90;36.78;101330.31;4957931;28;1201;-54
2023/02/05 10:32:56;;;;;;;;;;;;;;;16.01;38.50;101318.69;4940105;28;1042;-53
2023/02/05 10:35:26;;;;;;;;;;;;;;;15.68;39.08;101314.13;4957170;28;1118;-56
2023/02/05 10:37:52;;;;;;;;;;;;;;;15.85;39.05;101312.19;4957967;28;1157;-57
2023/02/05 10:40:21;;;;;;;;;;;;;;;17.36;35.96;101321.56;4957839;28;1054;-56
2023/02/05 10:42:52;;;;;;;;;;;;;;;16.87;36.76;101310.72;4957158;28;2456;-54
2023/02/05 10:45:20;;;;;;;;;;;;;;;16.07;38.21;101322.31;4963356;28;835;-51
2023/02/05 10:47:50;;;;;;;;;;;;;;;15.76;38.84;101321.09;4940121;29;1078;-55
2023/02/05 10:50:18;;;;;;;;;;;;;;;15.84;38.74;101317.94;4957304;28;1085;-51
2023/02/05 10:52:44;;;;;;;;;;;;;;;17.33;35.87;101316.56;4940220;29;1248;-50
2023/02/05 10:55:10;;;;;;;;;;;;;;;16.56;37.12;101310.47;4957205;28;1204;-53
2023/02/05 10:57:36;;;;;;;;;;;;;;;15.95;38.56;101318.88;4957203;28;890;-54
2023/02/05 11:00:02;;;;;;;;;;;;;;;15.62;39.15;101305.00;4957458;28;1129;-53
2023/02/05 11:02:38;;;;;;;;;;;;;;;15.40;39.61;101315.94;4957271;28;1986;-55
2023/02/05 11:05:14;;;;;;;;;;;;;;;16.85;36.61;101321.16;4940189;29;1114;-56
2023/02/05 11:07:40;;;;;;;;;;;;;;;16.99;36.38;101316.09;4940736;28;1098;-55
2023/02/05 11:10:15;;;;;;;;;;;;;;;16.06;38.27;101324.25;4978777;28;1149;-56
2023/02/05 11:12:42;;;;;;;;;;;;;;;15.65;39.15;101325.59;4958454;28;2558;-56
2023/02/05 11:15:15;;;;;;;;;;;;;;;16.28;38.01;101331.59;4957372;28;1177;-53
2023/02/05 11:17:41;;;;;;;;;;;;;;;17.56;35.24;101333.78;4940110;29;1015;-50
2023/02/05 11:20:10;;;;;;;;;;;;;;;16.51;37.39;101343.34;4972870;28;1168;-51
2023/02/05 11:22:38;;;;;;;;;;;;;;;15.93;38.64;101332.03;4939915;29;1902;-55
2023/02/05 11:25:25;;;;;;;;;;;;;;;15.57;39.30;101338.66;4957352;28;1153;-53
2023/02/05 11:27:57;;;;;;;;;;;;;;;15.46;39.78;101342.34;4957203;28;1042;-50
2023/02/05 11:30:24;;;;;;;;;;;;;;;17.13;36.31;101333.78;4960262;28;1130;-53
2023/02/05 11:32:50;;;;;;;;;;;;;;;16.79;36.68;101338.66;4967733;28;1102;-50
2023/02/05 11:35:21;;;;;;;;;;;;;;;16.02;38.43;101322.25;4960514;28;1113;-50
2023/02/05 11:37:49;;;;;;;;;;;;;;;15.68;39.30;101316.88;4960403;28;1034;-54
2023/02/05 11:40:21;;;;;;;;;;;;;;;15.43;39.64;101340.13;4960744;28;1090;-53
2023/02/05 11:42:49;;;;;;;;;;;;;;;16.62;37.41;101344.28;4966262;28;2323;-54
2023/02/05 11:45:15;;;;;;;;;;;;;;;17.42;35.74;101334.25;4960322;28;891;-52
2023/02/05 11:47:40;;;;;;;;;;;;;;;16.28;37.81;101328.84;4943248;29;1097;-53
2023/02/05 11:50:14;;;;;;;;;;;;;;;15.81;38.91;101340.38;4960524;28;1042;-51
2023/02/05 11:52:40;;;;;;;;;;;;;;;15.70;39.20;101340.22;4943399;29;1082;-52
2023/02/05 11:55:05;;;;;;;;;;;;;;;17.22;36.04;101347.84;4960918;28;1006;-48
2023/02/05 11:57:31;;;;;;;;;;;;;;;16.74;36.95;101351.28;4951982;29;1137;-48
2023/02/05 11:59:59;;;;;;;;;;;;;;;16.02;38.56;101346.94;4960578;28;1050;-49
2023/02/05 12:02:24;;;;;;;;;;;;;;;15.67;39.25;101368.13;4960228;28;1977;-48
2023/02/05 12:04:50;;;;;;;;;;;;;;;15.43;39.56;101362.03;4959977;28;1050;-54
2023/02/05 12:07:16;;;;;;;;;;;;;;;16.93;36.67;101360.00;4943081;29;1106;-56
2023/02/05 12:09:41;;;;;;;;;;;;;;;17.53;35.60;101361.78;4962889;28;863;-54
2023/02/05 12:12:39;;;;;;;;;;;;;;;16.36;37.68;101361.31;4959997;28;2484;-48
2023/02/05 12:15:13;;;;;;;;;;;;;;;15.83;39.03;101379.34;4937741;28;1283;-48
2023/02/05 12:17:50;;;;;;;;;;;;;;;15.59;39.56;101360.34;4960520;28;1209;-49
2023/02/05 12:20:22;;;;;;;;;;;;;;;17.14;36.36;101375.81;4943723;28;1213;-49
2023/02/05 12:23:07;;;;;;;;;;;;;;;17.17;36.29;101367.06;4968210;28;1982;-47
2023/02/05 12:25:39;;;;;;;;;;;;;;;16.12;38.14;101374.50;4948268;28;1056;-51
2023/02/05 12:28:23;;;;;;;;;;;;;;;15.73;39.17;101383.56;4960508;28;1110;-44
2023/02/05 12:31:14;;;;;;;;;;;;;;;15.47;39.56;101390.59;4959846;28;1114;-51
2023/02/05 12:33:47;;;;;;;;;;;;;;;16.98;36.84;101397.66;4948671;28;1136;-50
2023/02/05 12:36:28;;;;;;;;;;;;;;;17.44;35.52;101384.28;4942476;28;1054;-49
2023/02/05 12:38:57;;;;;;;;;;;;;;;16.30;37.78;101392.56;4960075;28;1034;-52
2023/02/05 12:41:26;;;;;;;;;;;;;;;15.85;38.94;101401.84;4959304;28;1911;-52
2023/02/05 12:43:52;;;;;;;;;;;;;;;15.55;39.25;101397.56;4977869;28;2583;-52
2023/02/05 12:46:38;;;;;;;;;;;;;;;15.51;39.54;101407.38;4987082;28;994;-51
2023/02/05 12:49:08;;;;;;;;;;;;;;;17.26;35.93;101398.44;4959596;28;1278;-52
2023/02/05 12:51:52;;;;;;;;;;;;;;;16.75;36.73;101418.03;4959585;28;1026;-49
2023/02/05 12:54:50;;;;;;;;;;;;;;;15.95;38.45;101412.13;4959844;28;1112;-51